N281DF KJWN-KGKT
Flight info
| Callsign | N281DF |
|---|---|
| Flight time | 0h 49m |
| Altitude | 7500 |
| Route | VXV |
| Aircraft | BE58/L-SDFGRY/C |
Departure
| Time | 2026-04-24 13:45 |
|---|---|
| Airport | John C Tune Airport (KJWN) |
Arrival
| Time | 2026-04-24 14:34 |
|---|---|
| Airport | Gatlinburg-Pigeon Forge Airport (KGKT) |
| Time | Latitude | Longitude | Altitude | Speed | Heading |
|---|---|---|---|---|---|
| 2026-04-24 13:28 | 36.17799 | -86.88250 | 504 ft | 0 kts | 280° |
| 2026-04-24 13:39 | 36.17802 | -86.88271 | 504 ft | 6 kts | 279° |
| 2026-04-24 13:39 | 36.17809 | -86.88344 | 504 ft | 10 kts | 280° |
| 2026-04-24 13:39 | 36.17812 | -86.88432 | 504 ft | 12 kts | 278° |
| 2026-04-24 13:40 | 36.17836 | -86.88547 | 504 ft | 15 kts | 285° |
| 2026-04-24 13:40 | 36.17842 | -86.88655 | 504 ft | 13 kts | 223° |
| 2026-04-24 13:40 | 36.17750 | -86.88691 | 504 ft | 15 kts | 195° |
| 2026-04-24 13:40 | 36.17643 | -86.88725 | 504 ft | 14 kts | 195° |
| 2026-04-24 13:41 | 36.17618 | -86.88733 | 504 ft | 0 kts | 194° |
| 2026-04-24 13:43 | 36.17602 | -86.88738 | 504 ft | 7 kts | 194° |
| 2026-04-24 13:43 | 36.17531 | -86.88762 | 504 ft | 13 kts | 194° |
| 2026-04-24 13:43 | 36.17491 | -86.88803 | 504 ft | 9 kts | 279° |
| 2026-04-24 13:43 | 36.17514 | -86.88895 | 504 ft | 11 kts | 312° |
| 2026-04-24 13:44 | 36.17650 | -86.88863 | 505 ft | 45 kts | 15° |
| 2026-04-24 13:44 | 36.17983 | -86.88754 | 506 ft | 102 kts | 15° |
| 2026-04-24 13:44 | 36.18811 | -86.88477 | 716 ft | 139 kts | 15° |
| 2026-04-24 13:44 | 36.19817 | -86.88160 | 973 ft | 158 kts | 15° |
| 2026-04-24 13:45 | 36.20918 | -86.87774 | 1211 ft | 169 kts | 16° |
| 2026-04-24 13:45 | 36.22085 | -86.87351 | 1438 ft | 178 kts | 15° |
| 2026-04-24 13:45 | 36.23297 | -86.86883 | 1671 ft | 186 kts | 15° |
| 2026-04-24 13:45 | 36.24540 | -86.86374 | 1900 ft | 190 kts | 16° |
| 2026-04-24 13:46 | 36.25808 | -86.85868 | 2141 ft | 193 kts | 14° |
| 2026-04-24 13:46 | 36.27067 | -86.85373 | 2481 ft | 187 kts | 13° |
| 2026-04-24 13:46 | 36.28260 | -86.84760 | 2818 ft | 187 kts | 30° |
| 2026-04-24 13:46 | 36.29299 | -86.83789 | 3162 ft | 188 kts | 36° |
| 2026-04-24 13:47 | 36.30336 | -86.82798 | 3503 ft | 188 kts | 36° |
| 2026-04-24 13:47 | 36.31359 | -86.81823 | 3841 ft | 187 kts | 36° |
| 2026-04-24 13:47 | 36.32403 | -86.80854 | 4188 ft | 187 kts | 35° |
| 2026-04-24 13:47 | 36.33416 | -86.79833 | 4536 ft | 188 kts | 44° |
| 2026-04-24 13:48 | 36.34324 | -86.78672 | 4883 ft | 187 kts | 52° |
| 2026-04-24 13:48 | 36.34832 | -86.77211 | 5222 ft | 185 kts | 82° |
| 2026-04-24 13:48 | 36.35040 | -86.75634 | 5572 ft | 185 kts | 84° |
| 2026-04-24 13:48 | 36.35240 | -86.74049 | 5924 ft | 185 kts | 84° |
| 2026-04-24 13:49 | 36.35438 | -86.72467 | 6285 ft | 186 kts | 84° |
| 2026-04-24 13:49 | 36.35636 | -86.70897 | 6613 ft | 187 kts | 84° |
| 2026-04-24 13:49 | 36.35832 | -86.69274 | 6856 ft | 193 kts | 85° |
| 2026-04-24 13:49 | 36.35904 | -86.67596 | 7023 ft | 197 kts | 93° |
| 2026-04-24 13:50 | 36.35818 | -86.65896 | 7197 ft | 197 kts | 101° |
| 2026-04-24 13:50 | 36.35547 | -86.64226 | 7381 ft | 199 kts | 105° |
| 2026-04-24 13:50 | 36.35265 | -86.62540 | 7542 ft | 201 kts | 103° |
| 2026-04-24 13:50 | 36.35008 | -86.60801 | 7551 ft | 207 kts | 102° |
| 2026-04-24 13:51 | 36.34752 | -86.59027 | 7558 ft | 211 kts | 102° |
| 2026-04-24 13:51 | 36.34488 | -86.57225 | 7562 ft | 213 kts | 103° |
| 2026-04-24 13:51 | 36.34221 | -86.55411 | 7561 ft | 215 kts | 103° |
| 2026-04-24 13:51 | 36.33954 | -86.53585 | 7563 ft | 216 kts | 103° |
| 2026-04-24 13:52 | 36.33682 | -86.51741 | 7561 ft | 217 kts | 103° |
| 2026-04-24 13:52 | 36.33412 | -86.49901 | 7565 ft | 217 kts | 102° |
| 2026-04-24 13:52 | 36.33140 | -86.48056 | 7564 ft | 218 kts | 103° |
| 2026-04-24 13:52 | 36.32867 | -86.46208 | 7565 ft | 218 kts | 103° |
| 2026-04-24 13:53 | 36.32597 | -86.44382 | 7562 ft | 218 kts | 103° |
| 2026-04-24 13:53 | 36.32324 | -86.42529 | 7562 ft | 218 kts | 103° |
| 2026-04-24 13:53 | 36.32050 | -86.40678 | 7564 ft | 218 kts | 103° |
| 2026-04-24 13:53 | 36.31776 | -86.38823 | 7564 ft | 219 kts | 103° |
| 2026-04-24 13:54 | 36.31500 | -86.36962 | 7562 ft | 219 kts | 103° |
| 2026-04-24 13:54 | 36.31225 | -86.35103 | 7564 ft | 219 kts | 103° |
| 2026-04-24 13:54 | 36.30947 | -86.33242 | 7563 ft | 220 kts | 103° |
| 2026-04-24 13:54 | 36.30671 | -86.31376 | 7563 ft | 220 kts | 103° |
| 2026-04-24 13:55 | 36.30390 | -86.29499 | 7507 ft | 222 kts | 103° |
| 2026-04-24 13:55 | 36.30111 | -86.27623 | 7506 ft | 221 kts | 103° |
| 2026-04-24 13:55 | 36.29832 | -86.25748 | 7504 ft | 221 kts | 103° |
| 2026-04-24 13:55 | 36.29552 | -86.23874 | 7489 ft | 220 kts | 103° |
| 2026-04-24 13:56 | 36.29274 | -86.22012 | 7494 ft | 220 kts | 103° |
| 2026-04-24 13:56 | 36.28999 | -86.20178 | 7495 ft | 219 kts | 103° |
| 2026-04-24 13:56 | 36.28721 | -86.18320 | 7495 ft | 219 kts | 103° |
| 2026-04-24 13:56 | 36.28443 | -86.16462 | 7491 ft | 220 kts | 103° |
| 2026-04-24 13:57 | 36.28161 | -86.14592 | 7494 ft | 221 kts | 103° |
| 2026-04-24 13:57 | 36.27880 | -86.12722 | 7494 ft | 220 kts | 103° |
| 2026-04-24 13:57 | 36.27599 | -86.10855 | 7494 ft | 220 kts | 103° |
| 2026-04-24 13:57 | 36.27318 | -86.08991 | 7492 ft | 219 kts | 102° |
| 2026-04-24 13:58 | 36.27039 | -86.07135 | 7493 ft | 219 kts | 103° |
| 2026-04-24 13:58 | 36.26757 | -86.05274 | 7491 ft | 219 kts | 103° |
| 2026-04-24 13:58 | 36.26481 | -86.03440 | 7491 ft | 219 kts | 103° |
| 2026-04-24 13:58 | 36.26199 | -86.01583 | 7490 ft | 219 kts | 103° |
| 2026-04-24 13:59 | 36.25920 | -85.99733 | 7492 ft | 218 kts | 103° |
| 2026-04-24 13:59 | 36.25639 | -85.97880 | 7492 ft | 219 kts | 103° |
| 2026-04-24 13:59 | 36.25357 | -85.96027 | 7489 ft | 218 kts | 103° |
| 2026-04-24 13:59 | 36.25079 | -85.94200 | 7491 ft | 219 kts | 103° |
| 2026-04-24 14:00 | 36.24796 | -85.92343 | 7490 ft | 219 kts | 103° |
| 2026-04-24 14:00 | 36.24515 | -85.90488 | 7490 ft | 219 kts | 103° |
| 2026-04-24 14:00 | 36.24233 | -85.88635 | 7489 ft | 219 kts | 103° |
| 2026-04-24 14:00 | 36.23949 | -85.86781 | 7489 ft | 218 kts | 103° |
| 2026-04-24 14:01 | 36.23667 | -85.84937 | 7491 ft | 218 kts | 103° |
| 2026-04-24 14:01 | 36.23385 | -85.83089 | 7490 ft | 218 kts | 103° |
| 2026-04-24 14:01 | 36.23104 | -85.81247 | 7493 ft | 217 kts | 103° |
| 2026-04-24 14:01 | 36.22825 | -85.79430 | 7491 ft | 218 kts | 103° |
| 2026-04-24 14:02 | 36.22544 | -85.77590 | 7494 ft | 217 kts | 103° |
| 2026-04-24 14:02 | 36.22261 | -85.75757 | 7496 ft | 217 kts | 103° |
| 2026-04-24 14:02 | 36.21976 | -85.73916 | 7496 ft | 218 kts | 103° |
| 2026-04-24 14:02 | 36.21694 | -85.72072 | 7496 ft | 218 kts | 103° |
| 2026-04-24 14:03 | 36.21410 | -85.70227 | 7493 ft | 218 kts | 103° |
| 2026-04-24 14:03 | 36.21125 | -85.68381 | 7496 ft | 219 kts | 103° |
| 2026-04-24 14:03 | 36.20838 | -85.66532 | 7497 ft | 219 kts | 103° |
| 2026-04-24 14:03 | 36.20551 | -85.64683 | 7497 ft | 219 kts | 103° |
| 2026-04-24 14:04 | 36.20266 | -85.62829 | 7501 ft | 219 kts | 103° |
| 2026-04-24 14:04 | 36.19978 | -85.60974 | 7502 ft | 219 kts | 103° |
| 2026-04-24 14:04 | 36.19691 | -85.59118 | 7502 ft | 220 kts | 103° |
| 2026-04-24 14:04 | 36.19404 | -85.57270 | 7502 ft | 219 kts | 103° |
| 2026-04-24 14:05 | 36.19115 | -85.55416 | 7503 ft | 219 kts | 103° |
| 2026-04-24 14:05 | 36.18826 | -85.53564 | 7502 ft | 219 kts | 103° |
| 2026-04-24 14:05 | 36.18537 | -85.51710 | 7501 ft | 219 kts | 103° |
| 2026-04-24 14:05 | 36.18247 | -85.49855 | 7502 ft | 219 kts | 103° |
| 2026-04-24 14:06 | 36.17958 | -85.48002 | 7500 ft | 219 kts | 103° |
| 2026-04-24 14:06 | 36.17670 | -85.46158 | 7501 ft | 218 kts | 103° |
| 2026-04-24 14:06 | 36.17383 | -85.44329 | 7501 ft | 219 kts | 103° |
| 2026-04-24 14:06 | 36.17094 | -85.42476 | 7505 ft | 220 kts | 103° |
| 2026-04-24 14:07 | 36.16803 | -85.40622 | 7506 ft | 219 kts | 103° |
| 2026-04-24 14:07 | 36.16511 | -85.38764 | 7507 ft | 220 kts | 103° |
| 2026-04-24 14:07 | 36.16221 | -85.36909 | 7507 ft | 219 kts | 103° |
| 2026-04-24 14:07 | 36.15928 | -85.35059 | 7507 ft | 219 kts | 103° |
| 2026-04-24 14:08 | 36.15636 | -85.33206 | 7508 ft | 219 kts | 103° |
| 2026-04-24 14:08 | 36.15344 | -85.31348 | 7507 ft | 220 kts | 103° |
| 2026-04-24 14:08 | 36.15051 | -85.29486 | 7520 ft | 220 kts | 103° |
| 2026-04-24 14:08 | 36.14757 | -85.27627 | 7521 ft | 220 kts | 103° |
| 2026-04-24 14:09 | 36.14464 | -85.25772 | 7523 ft | 219 kts | 103° |
| 2026-04-24 14:09 | 36.14172 | -85.23923 | 7523 ft | 219 kts | 103° |
| 2026-04-24 14:09 | 36.13884 | -85.22098 | 7524 ft | 218 kts | 103° |
| 2026-04-24 14:09 | 36.13592 | -85.20254 | 7525 ft | 218 kts | 103° |
| 2026-04-24 14:10 | 36.13300 | -85.18411 | 7527 ft | 218 kts | 103° |
| 2026-04-24 14:10 | 36.13008 | -85.16569 | 7528 ft | 218 kts | 103° |
| 2026-04-24 14:10 | 36.12715 | -85.14730 | 7529 ft | 218 kts | 103° |
| 2026-04-24 14:10 | 36.12422 | -85.12890 | 7531 ft | 218 kts | 103° |
| 2026-04-24 14:11 | 36.12130 | -85.11054 | 7530 ft | 217 kts | 103° |
| 2026-04-24 14:11 | 36.11837 | -85.09218 | 7531 ft | 217 kts | 103° |
| 2026-04-24 14:11 | 36.11253 | -85.05570 | 7532 ft | 218 kts | 103° |
| 2026-04-24 14:12 | 36.10959 | -85.03727 | 7532 ft | 219 kts | 103° |
| 2026-04-24 14:12 | 36.10662 | -85.01876 | 7533 ft | 219 kts | 103° |
| 2026-04-24 14:12 | 36.10365 | -85.00027 | 7534 ft | 219 kts | 103° |
| 2026-04-24 14:12 | 36.10067 | -84.98174 | 7533 ft | 219 kts | 103° |
| 2026-04-24 14:13 | 36.09770 | -84.96324 | 7530 ft | 219 kts | 103° |
| 2026-04-24 14:13 | 36.09474 | -84.94479 | 7528 ft | 219 kts | 103° |
| 2026-04-24 14:13 | 36.09176 | -84.92636 | 7527 ft | 219 kts | 103° |
| 2026-04-24 14:13 | 36.08879 | -84.90789 | 7527 ft | 218 kts | 104° |
| 2026-04-24 14:14 | 36.08581 | -84.88942 | 7528 ft | 219 kts | 103° |
| 2026-04-24 14:14 | 36.08282 | -84.87094 | 7524 ft | 219 kts | 103° |
| 2026-04-24 14:14 | 36.07686 | -84.83404 | 7517 ft | 218 kts | 103° |
| 2026-04-24 14:15 | 36.07388 | -84.81564 | 7518 ft | 218 kts | 103° |
| 2026-04-24 14:15 | 36.07090 | -84.79730 | 7520 ft | 218 kts | 103° |
| 2026-04-24 14:15 | 36.06793 | -84.77895 | 7521 ft | 218 kts | 103° |
| 2026-04-24 14:15 | 36.06498 | -84.76079 | 7525 ft | 219 kts | 103° |
| 2026-04-24 14:16 | 36.06198 | -84.74236 | 7522 ft | 219 kts | 103° |
| 2026-04-24 14:16 | 36.05898 | -84.72395 | 7523 ft | 219 kts | 103° |
| 2026-04-24 14:16 | 36.05597 | -84.70550 | 7524 ft | 218 kts | 104° |
| 2026-04-24 14:17 | 36.04995 | -84.66863 | 7523 ft | 218 kts | 103° |
| 2026-04-24 14:17 | 36.04695 | -84.65031 | 7526 ft | 217 kts | 104° |
| 2026-04-24 14:17 | 36.04096 | -84.61371 | 7527 ft | 217 kts | 104° |
| 2026-04-24 14:18 | 36.03795 | -84.59536 | 7531 ft | 218 kts | 104° |
| 2026-04-24 14:18 | 36.03496 | -84.57723 | 7528 ft | 218 kts | 104° |
| 2026-04-24 14:18 | 36.03194 | -84.55882 | 7527 ft | 219 kts | 104° |
| 2026-04-24 14:18 | 36.02891 | -84.54039 | 7527 ft | 219 kts | 104° |
| 2026-04-24 14:19 | 36.02686 | -84.52794 | 7524 ft | 219 kts | 104° |
| 2026-04-24 14:19 | 36.02284 | -84.50358 | 7523 ft | 218 kts | 104° |
| 2026-04-24 14:19 | 36.01981 | -84.48518 | 7522 ft | 218 kts | 104° |
| 2026-04-24 14:19 | 36.01677 | -84.46679 | 7521 ft | 218 kts | 104° |
| 2026-04-24 14:20 | 36.01374 | -84.44846 | 7519 ft | 218 kts | 104° |
| 2026-04-24 14:20 | 36.01074 | -84.43032 | 7516 ft | 218 kts | 104° |
| 2026-04-24 14:20 | 36.00771 | -84.41201 | 7516 ft | 218 kts | 104° |
| 2026-04-24 14:20 | 36.00467 | -84.39368 | 7516 ft | 218 kts | 104° |
| 2026-04-24 14:21 | 36.00162 | -84.37531 | 7515 ft | 218 kts | 104° |
| 2026-04-24 14:21 | 35.99856 | -84.35696 | 7509 ft | 218 kts | 104° |
| 2026-04-24 14:21 | 35.99551 | -84.33859 | 7507 ft | 218 kts | 104° |
| 2026-04-24 14:21 | 35.99245 | -84.32023 | 7507 ft | 218 kts | 104° |
| 2026-04-24 14:22 | 35.98940 | -84.30191 | 7509 ft | 218 kts | 104° |
| 2026-04-24 14:22 | 35.98632 | -84.28348 | 7394 ft | 222 kts | 104° |
| 2026-04-24 14:22 | 35.97995 | -84.24548 | 7068 ft | 229 kts | 104° |
| 2026-04-24 14:23 | 35.97672 | -84.22614 | 6900 ft | 230 kts | 104° |
| 2026-04-24 14:23 | 35.97348 | -84.20679 | 6731 ft | 230 kts | 104° |
| 2026-04-24 14:23 | 35.97023 | -84.18743 | 6566 ft | 230 kts | 104° |
| 2026-04-24 14:23 | 35.96698 | -84.16808 | 6402 ft | 231 kts | 104° |
| 2026-04-24 14:24 | 35.96371 | -84.14869 | 6225 ft | 230 kts | 104° |
| 2026-04-24 14:24 | 35.96047 | -84.12930 | 6051 ft | 231 kts | 104° |
| 2026-04-24 14:24 | 35.95725 | -84.11014 | 5880 ft | 230 kts | 104° |
| 2026-04-24 14:24 | 35.95399 | -84.09084 | 5704 ft | 229 kts | 104° |
| 2026-04-24 14:25 | 35.95178 | -84.07779 | 5588 ft | 229 kts | 104° |
| 2026-04-24 14:25 | 35.94752 | -84.05251 | 5354 ft | 224 kts | 104° |
| 2026-04-24 14:25 | 35.94437 | -84.03380 | 5184 ft | 221 kts | 104° |
| 2026-04-24 14:25 | 35.94122 | -84.01530 | 5009 ft | 219 kts | 104° |
| 2026-04-24 14:26 | 35.93813 | -83.99699 | 4841 ft | 218 kts | 104° |
| 2026-04-24 14:26 | 35.93503 | -83.97868 | 4600 ft | 219 kts | 104° |
| 2026-04-24 14:26 | 35.93195 | -83.96059 | 4221 ft | 210 kts | 104° |
| 2026-04-24 14:26 | 35.92904 | -83.94339 | 3849 ft | 200 kts | 104° |
| 2026-04-24 14:27 | 35.92629 | -83.92725 | 3616 ft | 192 kts | 104° |
| 2026-04-24 14:27 | 35.92354 | -83.91109 | 3530 ft | 190 kts | 104° |
| 2026-04-24 14:27 | 35.92083 | -83.89532 | 3525 ft | 186 kts | 103° |
| 2026-04-24 14:27 | 35.91819 | -83.87981 | 3527 ft | 183 kts | 103° |
| 2026-04-24 14:28 | 35.91556 | -83.86440 | 3527 ft | 182 kts | 103° |
| 2026-04-24 14:28 | 35.91296 | -83.84914 | 3525 ft | 181 kts | 103° |
| 2026-04-24 14:28 | 35.91036 | -83.83391 | 3530 ft | 182 kts | 103° |
| 2026-04-24 14:28 | 35.90775 | -83.81865 | 3528 ft | 181 kts | 103° |
| 2026-04-24 14:29 | 35.90515 | -83.80345 | 3530 ft | 180 kts | 103° |
| 2026-04-24 14:29 | 35.90255 | -83.78830 | 3526 ft | 180 kts | 103° |
| 2026-04-24 14:29 | 35.89998 | -83.77325 | 3525 ft | 179 kts | 104° |
| 2026-04-24 14:29 | 35.89739 | -83.75825 | 3524 ft | 178 kts | 103° |
| 2026-04-24 14:30 | 35.89519 | -83.74854 | 3523 ft | 177 kts | 109° |
| 2026-04-24 14:30 | 35.89000 | -83.72919 | 3523 ft | 178 kts | 113° |
| 2026-04-24 14:30 | 35.88532 | -83.71511 | 3460 ft | 181 kts | 114° |
| 2026-04-24 14:30 | 35.88052 | -83.70068 | 3393 ft | 183 kts | 114° |
| 2026-04-24 14:31 | 35.87624 | -83.68584 | 3321 ft | 185 kts | 104° |
| 2026-04-24 14:31 | 35.87456 | -83.66993 | 3128 ft | 188 kts | 95° |
| 2026-04-24 14:31 | 35.87339 | -83.65399 | 2883 ft | 186 kts | 98° |
| 2026-04-24 14:31 | 35.87159 | -83.63833 | 2636 ft | 183 kts | 100° |
| 2026-04-24 14:32 | 35.86963 | -83.62305 | 2401 ft | 173 kts | 100° |
| 2026-04-24 14:32 | 35.86788 | -83.60917 | 2178 ft | 157 kts | 100° |
| 2026-04-24 14:32 | 35.86625 | -83.59624 | 1982 ft | 150 kts | 100° |
| 2026-04-24 14:32 | 35.86520 | -83.58790 | 1851 ft | 148 kts | 99° |
| 2026-04-24 14:33 | 35.86364 | -83.57543 | 1657 ft | 145 kts | 99° |
| 2026-04-24 14:33 | 35.86224 | -83.56417 | 1478 ft | 124 kts | 99° |
| 2026-04-24 14:33 | 35.86095 | -83.55400 | 1311 ft | 117 kts | 99° |
| 2026-04-24 14:33 | 35.85974 | -83.54431 | 1146 ft | 111 kts | 99° |
| 2026-04-24 14:34 | 35.85861 | -83.53533 | 1003 ft | 95 kts | 99° |
| 2026-04-24 14:34 | 35.85783 | -83.52922 | 1003 ft | 38 kts | 98° |
| 2026-04-24 14:34 | 35.85765 | -83.52737 | 1002 ft | 10 kts | 69° |
| 2026-04-24 14:34 | 35.85817 | -83.52754 | 1001 ft | 12 kts | 279° |
| 2026-04-24 14:35 | 35.85832 | -83.52866 | 1001 ft | 14 kts | 279° |
| 2026-04-24 14:35 | 35.85847 | -83.52992 | 1001 ft | 15 kts | 279° |
| 2026-04-24 14:35 | 35.85863 | -83.53123 | 1001 ft | 16 kts | 278° |
| 2026-04-24 14:35 | 35.85881 | -83.53260 | 1000 ft | 17 kts | 279° |
| 2026-04-24 14:36 | 35.85899 | -83.53402 | 1000 ft | 17 kts | 278° |
| 2026-04-24 14:36 | 35.85916 | -83.53545 | 1000 ft | 17 kts | 278° |
| 2026-04-24 14:36 | 35.85943 | -83.53664 | 1017 ft | 12 kts | 332° |
| 2026-04-24 14:36 | 35.85975 | -83.53750 | 1007 ft | 12 kts | 279° |
| 2026-04-24 14:37 | 35.86033 | -83.53792 | 1007 ft | 12 kts | 10° |
| 2026-04-24 14:37 | 35.86063 | -83.53806 | 1007 ft | 5 kts | 243° |
| 2026-04-24 14:37 | 35.86038 | -83.53844 | 1007 ft | 6 kts | 275° |
| 2026-04-24 14:37 | 35.86042 | -83.53876 | 1007 ft | 0 kts | 278° |
| 2026-04-24 14:38 | 35.86042 | -83.53875 | 1007 ft | 2 kts | 278° |
| 2026-04-24 14:38 | 35.86040 | -83.53857 | 1007 ft | 0 kts | 278° |